DZU weather

Dazu Air Base
Dazu, Chongqing Municipality, China

Public forecast

Using degrees Celsius for public forecast. Weather courtesy of forecast.io.

Closest aviation weather report (METAR) to Dazu Air Base

Closest report is Chongqing Jiangbei International Airport, 45.6 nm (84.4 km) E. Retrieved 2020/02/19 16:00 UTC (25 minutes ago):

ZUCK 191600Z 01003MPS 9000 NSC 07/03 Q1022 NOSIG

Closest aviation forecast (TAF) to Dazu Air Base

Closest forecast is Chongqing Jiangbei International Airport, 45.6 nm (84.4 km) E. Retrieved 2020/02/19 12:03 UTC (4 hours ago):

TAF TAF ZUCK 190907Z 1912/2012 06003MPS 3500 BR SCT040 TX11/2008Z TN08/1922Z TEMPO 2008/2012 2500 -SHRA FEW002 SCT020 OVC050